sensor_id;sensor_type;location;lat;lon;timestamp;pressure;altitude;pressure_sealevel;temperature;humidity
59337;BME280;45115;52.002;4.686;2023-04-19T00:01:06;102875.81;;;8.87;75.73
59337;BME280;45115;52.002;4.686;2023-04-19T00:03:33;102876.72;;;8.87;75.56
59337;BME280;45115;52.002;4.686;2023-04-19T00:06:00;102877.69;;;8.86;76.07
59337;BME280;45115;52.002;4.686;2023-04-19T00:08:28;102876.88;;;8.84;75.71
59337;BME280;45115;52.002;4.686;2023-04-19T00:10:54;102875.09;;;8.83;76.26
59337;BME280;45115;52.002;4.686;2023-04-19T00:13:21;102885.19;;;8.83;76.43
59337;BME280;45115;52.002;4.686;2023-04-19T00:15:47;102874.25;;;8.83;76.04
59337;BME280;45115;52.002;4.686;2023-04-19T00:18:14;102878.81;;;8.82;76.74
59337;BME280;45115;52.002;4.686;2023-04-19T00:20:40;102871.59;;;8.81;76.30
59337;BME280;45115;52.002;4.686;2023-04-19T00:23:07;102871.13;;;8.73;76.92
59337;BME280;45115;52.002;4.686;2023-04-19T00:25:36;102876.41;;;8.76;76.90
59337;BME280;45115;52.002;4.686;2023-04-19T00:28:03;102864.72;;;8.74;76.90
59337;BME280;45115;52.002;4.686;2023-04-19T00:30:29;102870.88;;;8.78;77.20
59337;BME280;45115;52.002;4.686;2023-04-19T00:32:57;102864.63;;;8.76;77.50
59337;BME280;45115;52.002;4.686;2023-04-19T00:35:23;102861.97;;;8.74;77.40
59337;BME280;45115;52.002;4.686;2023-04-19T00:37:51;102872.22;;;8.86;77.02
59337;BME280;45115;52.002;4.686;2023-04-19T00:40:17;102863.34;;;8.98;76.78
59337;BME280;45115;52.002;4.686;2023-04-19T00:42:45;102860.59;;;8.98;76.88
59337;BME280;45115;52.002;4.686;2023-04-19T00:45:12;102862.31;;;9.17;76.27
59337;BME280;45115;52.002;4.686;2023-04-19T00:47:39;102865.81;;;9.19;76.07
59337;BME280;45115;52.002;4.686;2023-04-19T00:50:07;102864.69;;;9.23;76.48
59337;BME280;45115;52.002;4.686;2023-04-19T00:52:34;102859.13;;;9.24;76.02
59337;BME280;45115;52.002;4.686;2023-04-19T00:55:03;102854.13;;;9.32;76.60
59337;BME280;45115;52.002;4.686;2023-04-19T00:57:30;102852.78;;;9.39;76.19
59337;BME280;45115;52.002;4.686;2023-04-19T00:59:58;102851.97;;;9.53;76.34
59337;BME280;45115;52.002;4.686;2023-04-19T01:02:25;102853.19;;;9.63;76.29
59337;BME280;45115;52.002;4.686;2023-04-19T01:04:53;102854.34;;;9.74;75.72
59337;BME280;45115;52.002;4.686;2023-04-19T01:07:20;102852.81;;;9.84;75.41
59337;BME280;45115;52.002;4.686;2023-04-19T01:09:46;102848.91;;;9.88;75.83
59337;BME280;45115;52.002;4.686;2023-04-19T01:12:13;102844.41;;;9.87;75.46
59337;BME280;45115;52.002;4.686;2023-04-19T01:14:41;102842.28;;;9.92;75.22
59337;BME280;45115;52.002;4.686;2023-04-19T01:17:10;102847.66;;;9.94;75.59
59337;BME280;45115;52.002;4.686;2023-04-19T01:19:37;102837.59;;;9.94;75.72
59337;BME280;45115;52.002;4.686;2023-04-19T01:22:04;102837.75;;;10.07;75.46
59337;BME280;45115;52.002;4.686;2023-04-19T01:24:32;102828.75;;;10.05;75.85
59337;BME280;45115;52.002;4.686;2023-04-19T01:26:59;102830.59;;;10.04;75.61
59337;BME280;45115;52.002;4.686;2023-04-19T01:29:26;102841.22;;;10.10;75.98
59337;BME280;45115;52.002;4.686;2023-04-19T01:31:53;102835.84;;;10.09;75.32
59337;BME280;45115;52.002;4.686;2023-04-19T01:34:19;102842.09;;;9.95;75.97
59337;BME280;45115;52.002;4.686;2023-04-19T01:36:47;102840.16;;;9.97;76.32
59337;BME280;45115;52.002;4.686;2023-04-19T01:39:14;102840.53;;;9.91;76.21
59337;BME280;45115;52.002;4.686;2023-04-19T01:41:42;102848.00;;;9.74;76.65
59337;BME280;45115;52.002;4.686;2023-04-19T01:44:08;102841.38;;;9.62;77.44
59337;BME280;45115;52.002;4.686;2023-04-19T01:46:36;102846.94;;;9.45;77.89
59337;BME280;45115;52.002;4.686;2023-04-19T01:49:03;102846.44;;;9.23;78.91
59337;BME280;45115;52.002;4.686;2023-04-19T01:51:30;102851.28;;;9.18;78.94
59337;BME280;45115;52.002;4.686;2023-04-19T01:53:56;102847.84;;;8.99;79.64
59337;BME280;45115;52.002;4.686;2023-04-19T01:56:23;102846.03;;;8.82;79.96
59337;BME280;45115;52.002;4.686;2023-04-19T01:58:51;102845.50;;;8.76;80.75
59337;BME280;45115;52.002;4.686;2023-04-19T02:01:18;102844.78;;;8.72;80.54
59337;BME280;45115;52.002;4.686;2023-04-19T02:03:45;102842.44;;;8.65;80.79
59337;BME280;45115;52.002;4.686;2023-04-19T02:06:12;102844.06;;;8.69;80.85
59337;BME280;45115;52.002;4.686;2023-04-19T02:08:41;102840.00;;;8.60;81.17
59337;BME280;45115;52.002;4.686;2023-04-19T02:11:08;102846.25;;;8.62;81.46
59337;BME280;45115;52.002;4.686;2023-04-19T02:13:35;102845.91;;;8.68;80.75
59337;BME280;45115;52.002;4.686;2023-04-19T02:16:07;102848.47;;;8.71;80.92
59337;BME280;45115;52.002;4.686;2023-04-19T02:18:34;102834.78;;;8.71;80.71
59337;BME280;45115;52.002;4.686;2023-04-19T02:21:03;102837.22;;;8.77;80.39
59337;BME280;45115;52.002;4.686;2023-04-19T02:23:29;102833.41;;;8.80;80.35
59337;BME280;45115;52.002;4.686;2023-04-19T02:25:56;102834.56;;;8.76;80.79
59337;BME280;45115;52.002;4.686;2023-04-19T02:28:23;102835.09;;;8.82;80.16
59337;BME280;45115;52.002;4.686;2023-04-19T02:30:49;102843.69;;;8.92;79.72
59337;BME280;45115;52.002;4.686;2023-04-19T02:33:17;102840.50;;;8.99;80.20
59337;BME280;45115;52.002;4.686;2023-04-19T02:35:44;102840.25;;;9.04;79.40
59337;BME280;45115;52.002;4.686;2023-04-19T02:38:10;102833.19;;;9.00;79.87
59337;BME280;45115;52.002;4.686;2023-04-19T02:40:37;102837.72;;;9.17;79.00
59337;BME280;45115;52.002;4.686;2023-04-19T02:43:04;102849.59;;;9.16;79.48
59337;BME280;45115;52.002;4.686;2023-04-19T02:45:30;102845.81;;;9.18;79.00
59337;BME280;45115;52.002;4.686;2023-04-19T02:47:57;102852.00;;;9.22;79.41
59337;BME280;45115;52.002;4.686;2023-04-19T02:50:26;102843.78;;;9.22;79.12
59337;BME280;45115;52.002;4.686;2023-04-19T02:52:52;102846.44;;;9.23;79.15
59337;BME280;45115;52.002;4.686;2023-04-19T02:55:21;102851.28;;;9.18;79.88
59337;BME280;45115;52.002;4.686;2023-04-19T02:57:56;102848.56;;;9.18;79.88
59337;BME280;45115;52.002;4.686;2023-04-19T03:00:22;102848.19;;;9.24;79.97
59337;BME280;45115;52.002;4.686;2023-04-19T03:03:00;102853.03;;;9.19;80.22
59337;BME280;45115;52.002;4.686;2023-04-19T03:05:30;102854.72;;;9.22;79.68
59337;BME280;45115;52.002;4.686;2023-04-19T03:07:57;102856.75;;;9.18;80.61
59337;BME280;45115;52.002;4.686;2023-04-19T03:10:24;102848.00;;;9.27;80.13
59337;BME280;45115;52.002;4.686;2023-04-19T03:12:51;102846.69;;;9.34;79.83
59337;BME280;45115;52.002;4.686;2023-04-19T03:15:18;102846.97;;;9.30;79.28
59337;BME280;45115;52.002;4.686;2023-04-19T03:17:45;102845.13;;;9.30;79.97
59337;BME280;45115;52.002;4.686;2023-04-19T03:20:12;102846.44;;;9.39;79.31
59337;BME280;45115;52.002;4.686;2023-04-19T03:22:40;102841.75;;;9.41;79.33
59337;BME280;45115;52.002;4.686;2023-04-19T03:25:08;102844.31;;;9.44;79.45
59337;BME280;45115;52.002;4.686;2023-04-19T03:27:37;102835.13;;;9.45;79.57
59337;BME280;45115;52.002;4.686;2023-04-19T03:30:09;102847.22;;;9.41;79.65
59337;BME280;45115;52.002;4.686;2023-04-19T03:32:36;102846.63;;;9.36;79.97
59337;BME280;45115;52.002;4.686;2023-04-19T03:35:03;102839.81;;;9.43;80.02
59337;BME280;45115;52.002;4.686;2023-04-19T03:37:30;102835.22;;;9.43;79.41
59337;BME280;45115;52.002;4.686;2023-04-19T03:39:59;102834.59;;;9.38;79.66
59337;BME280;45115;52.002;4.686;2023-04-19T03:42:31;102826.91;;;9.45;79.06
59337;BME280;45115;52.002;4.686;2023-04-19T03:45:23;102826.91;;;9.45;79.36
59337;BME280;45115;52.002;4.686;2023-04-19T03:47:57;102827.56;;;9.50;79.27
59337;BME280;45115;52.002;4.686;2023-04-19T03:50:24;102830.19;;;9.51;78.94
59337;BME280;45115;52.002;4.686;2023-04-19T03:52:54;102832.66;;;9.56;79.24
59337;BME280;45115;52.002;4.686;2023-04-19T03:55:22;102825.44;;;9.55;79.09
59337;BME280;45115;52.002;4.686;2023-04-19T03:57:49;102817.81;;;9.60;78.03
59337;BME280;45115;52.002;4.686;2023-04-19T04:00:22;102826.28;;;9.55;78.59
59337;BME280;45115;52.002;4.686;2023-04-19T04:02:54;102831.75;;;9.55;78.81
59337;BME280;45115;52.002;4.686;2023-04-19T04:05:21;102830.50;;;9.61;77.97
59337;BME280;45115;52.002;4.686;2023-04-19T04:07:48;102828.88;;;9.58;78.42
59337;BME280;45115;52.002;4.686;2023-04-19T04:10:15;102829.47;;;9.63;77.64
59337;BME280;45115;52.002;4.686;2023-04-19T04:12:43;102827.63;;;9.64;77.97
59337;BME280;45115;52.002;4.686;2023-04-19T04:15:16;102829.97;;;9.70;77.77
59337;BME280;45115;52.002;4.686;2023-04-19T04:17:47;102832.53;;;9.73;77.91
59337;BME280;45115;52.002;4.686;2023-04-19T04:20:14;102831.75;;;9.71;78.33
59337;BME280;45115;52.002;4.686;2023-04-19T04:22:41;102835.19;;;9.74;77.33
59337;BME280;45115;52.002;4.686;2023-04-19T04:25:09;102836.75;;;9.78;77.46
59337;BME280;45115;52.002;4.686;2023-04-19T04:27:37;102829.47;;;9.63;77.64
59337;BME280;45115;52.002;4.686;2023-04-19T04:30:09;102838.78;;;9.75;77.76
59337;BME280;45115;52.002;4.686;2023-04-19T04:32:37;102835.34;;;9.71;77.70
59337;BME280;45115;52.002;4.686;2023-04-19T04:35:07;102845.16;;;9.75;77.56
59337;BME280;45115;52.002;4.686;2023-04-19T04:37:50;102844.88;;;9.80;77.33
59337;BME280;45115;52.002;4.686;2023-04-19T04:40:19;102832.97;;;9.81;76.97
59337;BME280;45115;52.002;4.686;2023-04-19T04:42:46;102835.88;;;9.78;77.39
59337;BME280;45115;52.002;4.686;2023-04-19T04:45:16;102836.75;;;9.78;77.40
59337;BME280;45115;52.002;4.686;2023-04-19T04:47:43;102838.69;;;9.76;77.00
59337;BME280;45115;52.002;4.686;2023-04-19T04:50:12;102840.47;;;9.77;76.81
59337;BME280;45115;52.002;4.686;2023-04-19T04:52:39;102839.41;;;9.80;76.40
59337;BME280;45115;52.002;4.686;2023-04-19T04:55:14;102841.44;;;9.76;76.75
59337;BME280;45115;52.002;4.686;2023-04-19T04:57:42;102844.97;;;9.78;76.38
59337;BME280;45115;52.002;4.686;2023-04-19T05:00:18;102841.53;;;9.75;76.74
59337;BME280;45115;52.002;4.686;2023-04-19T05:02:56;102840.22;;;9.66;76.68
59337;BME280;45115;52.002;4.686;2023-04-19T05:05:23;102846.78;;;9.64;76.13
59337;BME280;45115;52.002;4.686;2023-04-19T05:07:50;102858.50;;;9.66;76.42
59337;BME280;45115;52.002;4.686;2023-04-19T05:10:16;102847.13;;;9.58;76.10
59337;BME280;45115;52.002;4.686;2023-04-19T05:12:44;102847.91;;;9.60;76.39
59337;BME280;45115;52.002;4.686;2023-04-19T05:15:11;102837.50;;;9.51;77.33
59337;BME280;45115;52.002;4.686;2023-04-19T05:17:44;102843.78;;;9.53;76.54
59337;BME280;45115;52.002;4.686;2023-04-19T05:20:12;102843.69;;;9.54;76.38
59337;BME280;45115;52.002;4.686;2023-04-19T05:22:39;102852.19;;;9.50;76.02
59337;BME280;45115;52.002;4.686;2023-04-19T05:25:09;102835.56;;;9.53;75.69
59337;BME280;45115;52.002;4.686;2023-04-19T05:27:37;102844.38;;;9.58;75.93
59337;BME280;45115;52.002;4.686;2023-04-19T05:30:05;102844.38;;;9.58;75.59
59337;BME280;45115;52.002;4.686;2023-04-19T05:32:35;102856.22;;;9.58;75.08
59337;BME280;45115;52.002;4.686;2023-04-19T05:35:06;102854.34;;;9.59;75.40
59337;BME280;45115;52.002;4.686;2023-04-19T05:37:33;102849.56;;;9.62;74.66
59337;BME280;45115;52.002;4.686;2023-04-19T05:40:01;102859.28;;;9.68;75.02
59337;BME280;45115;52.002;4.686;2023-04-19T05:42:30;102860.97;;;9.70;74.60
59337;BME280;45115;52.002;4.686;2023-04-19T05:44:56;102865.47;;;9.71;74.16
59337;BME280;45115;52.002;4.686;2023-04-19T05:47:23;102856.19;;;9.74;74.54
59337;BME280;45115;52.002;4.686;2023-04-19T05:50:09;102861.47;;;9.77;73.79
59337;BME280;45115;52.002;4.686;2023-04-19T05:52:42;102865.22;;;9.76;74.38
59337;BME280;45115;52.002;4.686;2023-04-19T05:55:09;102864.31;;;9.75;73.34
59337;BME280;45115;52.002;4.686;2023-04-19T05:57:41;102867.66;;;9.80;72.85
59337;BME280;45115;52.002;4.686;2023-04-19T06:00:09;102869.78;;;9.75;73.24
59337;BME280;45115;52.002;4.686;2023-04-19T06:02:50;102866.84;;;9.78;72.92
59337;BME280;45115;52.002;4.686;2023-04-19T06:05:19;102868.56;;;9.81;72.39
59337;BME280;45115;52.002;4.686;2023-04-19T06:07:46;102870.03;;;9.86;72.35
59337;BME280;45115;52.002;4.686;2023-04-19T06:10:13;102869.47;;;9.95;71.79
59337;BME280;45115;52.002;4.686;2023-04-19T06:12:40;102865.28;;;9.90;72.90
59337;BME280;45115;52.002;4.686;2023-04-19T06:15:08;102859.91;;;10.02;72.90
59337;BME280;45115;52.002;4.686;2023-04-19T06:17:35;102862.06;;;9.97;73.24
59337;BME280;45115;52.002;4.686;2023-04-19T06:20:01;102867.50;;;10.13;73.30
59337;BME280;45115;52.002;4.686;2023-04-19T06:22:32;102874.47;;;10.19;72.15
59337;BME280;45115;52.002;4.686;2023-04-19T06:25:00;102871.84;;;10.17;71.33
59337;BME280;45115;52.002;4.686;2023-04-19T06:27:26;102870.50;;;10.24;71.41
59337;BME280;45115;52.002;4.686;2023-04-19T06:29:53;102867.50;;;10.29;71.27
59337;BME280;45115;52.002;4.686;2023-04-19T06:32:20;102856.25;;;10.33;70.16
59337;BME280;45115;52.002;4.686;2023-04-19T06:34:46;102866.06;;;10.51;69.95
59337;BME280;45115;52.002;4.686;2023-04-19T06:37:14;102861.94;;;10.44;69.60
59337;BME280;45115;52.002;4.686;2023-04-19T06:39:42;102871.91;;;10.45;68.74
59337;BME280;45115;52.002;4.686;2023-04-19T06:42:09;102868.19;;;10.46;68.19
59337;BME280;45115;52.002;4.686;2023-04-19T06:44:36;102865.31;;;11.05;65.64
59337;BME280;45115;52.002;4.686;2023-04-19T06:47:03;102867.34;;;12.49;61.82
59337;BME280;45115;52.002;4.686;2023-04-19T06:49:30;102875.75;;;12.98;58.31
59337;BME280;45115;52.002;4.686;2023-04-19T06:51:58;102862.22;;;12.70;57.80
59337;BME280;45115;52.002;4.686;2023-04-19T06:54:24;102872.91;;;13.12;58.49
59337;BME280;45115;52.002;4.686;2023-04-19T06:56:56;102875.22;;;12.80;57.53
59337;BME280;45115;52.002;4.686;2023-04-19T06:59:23;102872.47;;;12.80;57.16
59337;BME280;45115;52.002;4.686;2023-04-19T07:01:53;102865.88;;;13.08;56.69
59337;BME280;45115;52.002;4.686;2023-04-19T07:04:20;102861.81;;;13.50;55.03
59337;BME280;45115;52.002;4.686;2023-04-19T07:06:47;102862.91;;;13.83;53.63
59337;BME280;45115;52.002;4.686;2023-04-19T07:09:15;102864.22;;;14.25;52.07
59337;BME280;45115;52.002;4.686;2023-04-19T07:11:42;102854.97;;;14.26;52.09
59337;BME280;45115;52.002;4.686;2023-04-19T07:14:10;102855.47;;;13.73;52.54
59337;BME280;45115;52.002;4.686;2023-04-19T07:16:36;102857.66;;;13.91;52.39
59337;BME280;45115;52.002;4.686;2023-04-19T07:19:03;102853.28;;;14.47;50.83
59337;BME280;45115;52.002;4.686;2023-04-19T07:21:30;102855.31;;;14.56;49.17
59337;BME280;45115;52.002;4.686;2023-04-19T07:23:57;102851.75;;;15.11;48.33
59337;BME280;45115;52.002;4.686;2023-04-19T07:26:24;102856.50;;;14.98;48.36
59337;BME280;45115;52.002;4.686;2023-04-19T07:28:51;102855.50;;;15.10;47.73
59337;BME280;45115;52.002;4.686;2023-04-19T07:31:19;102845.81;;;14.60;47.77
59337;BME280;45115;52.002;4.686;2023-04-19T07:33:46;102847.34;;;15.08;47.72
59337;BME280;45115;52.002;4.686;2023-04-19T07:36:13;102845.84;;;15.26;45.84
59337;BME280;45115;52.002;4.686;2023-04-19T07:38:39;102841.53;;;15.78;44.61
59337;BME280;45115;52.002;4.686;2023-04-19T07:41:06;102837.44;;;15.28;45.74
59337;BME280;45115;52.002;4.686;2023-04-19T07:43:33;102833.56;;;14.86;45.98
59337;BME280;45115;52.002;4.686;2023-04-19T07:46:00;102835.91;;;15.24;45.00
59337;BME280;45115;52.002;4.686;2023-04-19T07:48:29;102838.84;;;14.32;46.57
59337;BME280;45115;52.002;4.686;2023-04-19T07:50:56;102847.28;;;14.53;45.91
59337;BME280;45115;52.002;4.686;2023-04-19T07:53:23;102846.72;;;15.60;44.32
59337;BME280;45115;52.002;4.686;2023-04-19T07:55:50;102834.94;;;16.21;42.40
59337;BME280;45115;52.002;4.686;2023-04-19T07:58:17;102839.88;;;16.49;41.26
59337;BME280;45115;52.002;4.686;2023-04-19T08:00:43;102832.94;;;16.85;39.73
59337;BME280;45115;52.002;4.686;2023-04-19T08:03:10;102835.19;;;16.18;40.71
59337;BME280;45115;52.002;4.686;2023-04-19T08:05:38;102839.22;;;15.94;41.52
59337;BME280;45115;52.002;4.686;2023-04-19T08:08:04;102841.75;;;16.49;40.60
59337;BME280;45115;52.002;4.686;2023-04-19T08:10:32;102826.91;;;16.70;39.62
59337;BME280;45115;52.002;4.686;2023-04-19T08:13:00;102827.34;;;17.06;38.68
59337;BME280;45115;52.002;4.686;2023-04-19T08:15:28;102835.88;;;17.23;37.68
59337;BME280;45115;52.002;4.686;2023-04-19T08:17:54;102830.63;;;16.90;37.99
59337;BME280;45115;52.002;4.686;2023-04-19T08:20:21;102828.50;;;16.52;39.26
59337;BME280;45115;52.002;4.686;2023-04-19T08:22:49;102823.78;;;17.64;36.97
59337;BME280;45115;52.002;4.686;2023-04-19T08:25:17;102823.81;;;17.34;38.61
59337;BME280;45115;52.002;4.686;2023-04-19T08:27:44;102816.69;;;17.90;37.10
59337;BME280;45115;52.002;4.686;2023-04-19T08:30:12;102825.50;;;16.24;39.01
59337;BME280;45115;52.002;4.686;2023-04-19T08:32:39;102823.44;;;16.05;39.74
59337;BME280;45115;52.002;4.686;2023-04-19T08:35:07;102832.31;;;15.45;41.43
59337;BME280;45115;52.002;4.686;2023-04-19T08:37:34;102834.84;;;15.80;42.18
59337;BME280;45115;52.002;4.686;2023-04-19T08:40:03;102833.06;;;15.90;39.38
59337;BME280;45115;52.002;4.686;2023-04-19T08:42:31;102843.22;;;15.47;37.60
59337;BME280;45115;52.002;4.686;2023-04-19T08:45:00;102829.41;;;14.81;39.38
59337;BME280;45115;52.002;4.686;2023-04-19T08:47:32;102836.56;;;15.05;39.51
59337;BME280;45115;52.002;4.686;2023-04-19T08:49:59;102833.56;;;15.30;39.36
59337;BME280;45115;52.002;4.686;2023-04-19T08:52:27;102826.25;;;15.29;39.30
59337;BME280;45115;52.002;4.686;2023-04-19T08:54:54;102829.94;;;14.97;38.63
59337;BME280;45115;52.002;4.686;2023-04-19T08:57:23;102834.53;;;15.29;39.61
59337;BME280;45115;52.002;4.686;2023-04-19T08:59:50;102826.41;;;14.73;38.81
59337;BME280;45115;52.002;4.686;2023-04-19T09:02:20;102825.03;;;15.00;39.10
59337;BME280;45115;52.002;4.686;2023-04-19T09:04:47;102833.03;;;15.36;38.46
59337;BME280;45115;52.002;4.686;2023-04-19T09:07:22;102824.50;;;15.28;38.95
59337;BME280;45115;52.002;4.686;2023-04-19T09:10:04;102824.75;;;14.92;38.41
59337;BME280;45115;52.002;4.686;2023-04-19T09:12:33;102823.00;;;14.91;38.18
59337;BME280;45115;52.002;4.686;2023-04-19T09:15:01;102818.88;;;14.97;37.74
59337;BME280;45115;52.002;4.686;2023-04-19T09:17:28;102827.53;;;14.81;37.89
59337;BME280;45115;52.002;4.686;2023-04-19T09:19:56;102815.81;;;14.55;38.02
59337;BME280;45115;52.002;4.686;2023-04-19T09:22:23;102819.63;;;14.88;37.79
59337;BME280;45115;52.002;4.686;2023-04-19T09:24:50;102804.84;;;14.78;36.88
59337;BME280;45115;52.002;4.686;2023-04-19T09:27:25;102807.22;;;15.04;37.11
59337;BME280;45115;52.002;4.686;2023-04-19T09:29:53;102812.22;;;14.77;35.65
59337;BME280;45115;52.002;4.686;2023-04-19T09:32:20;102813.47;;;14.62;35.62
59337;BME280;45115;52.002;4.686;2023-04-19T09:34:52;102812.09;;;14.79;36.93
59337;BME280;45115;52.002;4.686;2023-04-19T09:37:19;102811.59;;;14.74;34.59
59337;BME280;45115;52.002;4.686;2023-04-19T09:39:46;102794.13;;;14.51;33.94
59337;BME280;45115;52.002;4.686;2023-04-19T09:42:12;102807.25;;;14.36;33.78
59337;BME280;45115;52.002;4.686;2023-04-19T09:44:39;102798.47;;;14.31;32.84
59337;BME280;45115;52.002;4.686;2023-04-19T09:47:23;102807.19;;;14.60;33.42
59337;BME280;45115;52.002;4.686;2023-04-19T09:50:04;102802.69;;;14.92;34.25
59337;BME280;45115;52.002;4.686;2023-04-19T09:52:31;102807.09;;;15.06;33.14
59337;BME280;45115;52.002;4.686;2023-04-19T09:55:00;102803.31;;;14.96;33.64
59337;BME280;45115;52.002;4.686;2023-04-19T09:57:27;102792.63;;;15.13;33.55
59337;BME280;45115;52.002;4.686;2023-04-19T09:59:54;102804.19;;;14.96;31.99
59337;BME280;45115;52.002;4.686;2023-04-19T10:02:22;102790.03;;;15.01;31.83
59337;BME280;45115;52.002;4.686;2023-04-19T10:04:50;102794.16;;;15.06;32.96
59337;BME280;45115;52.002;4.686;2023-04-19T10:07:17;102798.41;;;14.66;32.18
59337;BME280;45115;52.002;4.686;2023-04-19T10:09:45;102804.56;;;14.59;31.47
59337;BME280;45115;52.002;4.686;2023-04-19T10:12:15;102800.13;;;14.45;31.39
59337;BME280;45115;52.002;4.686;2023-04-19T10:14:42;102786.97;;;14.48;32.52
59337;BME280;45115;52.002;4.686;2023-04-19T10:17:10;102804.84;;;14.78;32.17
59337;BME280;45115;52.002;4.686;2023-04-19T10:19:39;102790.38;;;14.52;30.96
59337;BME280;45115;52.002;4.686;2023-04-19T10:22:07;102793.81;;;14.89;32.22
59337;BME280;45115;52.002;4.686;2023-04-19T10:24:33;102790.41;;;14.85;30.92
59337;BME280;45115;52.002;4.686;2023-04-19T10:27:10;102797.66;;;14.75;31.00
59337;BME280;45115;52.002;4.686;2023-04-19T10:29:57;102793.81;;;14.89;30.47
59337;BME280;45115;52.002;4.686;2023-04-19T10:32:26;102780.13;;;14.76;30.38
59337;BME280;45115;52.002;4.686;2023-04-19T10:34:54;102778.59;;;14.94;29.38
59337;BME280;45115;52.002;4.686;2023-04-19T10:37:21;102777.66;;;15.38;30.14
59337;BME280;45115;52.002;4.686;2023-04-19T10:39:49;102779.25;;;14.76;30.27
59337;BME280;45115;52.002;4.686;2023-04-19T10:42:16;102797.94;;;15.05;30.15
59337;BME280;45115;52.002;4.686;2023-04-19T10:47:54;102776.75;;;14.73;30.21
59337;BME280;45115;52.002;4.686;2023-04-19T10:50:24;102767.31;;;15.08;30.42
59337;BME280;45115;52.002;4.686;2023-04-19T10:56:00;102773.53;;;15.54;30.97
59337;BME280;45115;52.002;4.686;2023-04-19T10:58:27;102766.53;;;15.06;30.38
59337;BME280;45115;52.002;4.686;2023-04-19T11:03:52;102773.97;;;14.84;31.20
59337;BME280;45115;52.002;4.686;2023-04-19T11:06:20;102767.84;;;14.69;32.37
59337;BME280;45115;52.002;4.686;2023-04-19T11:08:51;102772.84;;;14.97;33.79
59337;BME280;45115;52.002;4.686;2023-04-19T11:11:18;102759.00;;;15.30;32.14
59337;BME280;45115;52.002;4.686;2023-04-19T11:13:46;102762.19;;;15.04;30.81
59337;BME280;45115;52.002;4.686;2023-04-19T11:16:13;102764.13;;;15.24;31.06
59337;BME280;45115;52.002;4.686;2023-04-19T11:18:39;102766.78;;;15.25;32.50
59337;BME280;45115;52.002;4.686;2023-04-19T11:21:06;102772.47;;;15.13;32.41
59337;BME280;45115;52.002;4.686;2023-04-19T11:23:39;102762.75;;;15.29;33.64
59337;BME280;45115;52.002;4.686;2023-04-19T11:26:09;102753.09;;;15.24;33.17
59337;BME280;45115;52.002;4.686;2023-04-19T11:28:36;102742.31;;;15.10;32.58
59337;BME280;45115;52.002;4.686;2023-04-19T11:31:03;102749.72;;;15.20;32.61
59337;BME280;45115;52.002;4.686;2023-04-19T11:33:32;102742.38;;;15.52;32.42
59337;BME280;45115;52.002;4.686;2023-04-19T11:35:59;102758.47;;;15.47;32.23
59337;BME280;45115;52.002;4.686;2023-04-19T11:38:26;102746.16;;;15.51;33.07
59337;BME280;45115;52.002;4.686;2023-04-19T11:40:58;102743.88;;;15.56;31.93
59337;BME280;45115;52.002;4.686;2023-04-19T11:43:31;102735.22;;;15.82;32.60
59337;BME280;45115;52.002;4.686;2023-04-19T11:46:03;102727.38;;;15.23;32.59
59337;BME280;45115;52.002;4.686;2023-04-19T11:48:30;102734.25;;;15.51;31.49
59337;BME280;45115;52.002;4.686;2023-04-19T11:50:58;102723.97;;;15.31;32.24
59337;BME280;45115;52.002;4.686;2023-04-19T11:53:25;102715.88;;;15.18;31.01
59337;BME280;45115;52.002;4.686;2023-04-19T11:55:53;102738.34;;;14.81;31.45
59337;BME280;45115;52.002;4.686;2023-04-19T11:58:27;102723.00;;;15.21;31.46
59337;BME280;45115;52.002;4.686;2023-04-19T12:00:57;102715.56;;;15.32;30.06
59337;BME280;45115;52.002;4.686;2023-04-19T12:03:28;102702.81;;;15.52;29.55
59337;BME280;45115;52.002;4.686;2023-04-19T12:05:56;102705.97;;;15.58;29.38
59337;BME280;45115;52.002;4.686;2023-04-19T12:08:30;102701.38;;;15.69;28.76
59337;BME280;45115;52.002;4.686;2023-04-19T12:10:58;102702.63;;;15.96;28.20
59337;BME280;45115;52.002;4.686;2023-04-19T12:13:26;102718.19;;;15.97;27.98
59337;BME280;45115;52.002;4.686;2023-04-19T12:15:53;102710.50;;;15.80;27.56
59337;BME280;45115;52.002;4.686;2023-04-19T12:18:20;102696.97;;;15.34;27.92
59337;BME280;45115;52.002;4.686;2023-04-19T12:20:47;102688.56;;;15.68;28.99
59337;BME280;45115;52.002;4.686;2023-04-19T12:23:15;102700.22;;;15.39;27.91
59337;BME280;45115;52.002;4.686;2023-04-19T12:25:43;102695.88;;;15.69;29.13
59337;BME280;45115;52.002;4.686;2023-04-19T12:28:10;102678.34;;;16.00;28.42
59337;BME280;45115;52.002;4.686;2023-04-19T12:30:39;102692.72;;;16.14;26.87
59337;BME280;45115;52.002;4.686;2023-04-19T12:33:06;102685.19;;;16.26;28.08
59337;BME280;45115;52.002;4.686;2023-04-19T12:35:33;102689.94;;;16.14;27.22
59337;BME280;45115;52.002;4.686;2023-04-19T12:38:01;102686.97;;;16.27;27.89
59337;BME280;45115;52.002;4.686;2023-04-19T12:40:28;102691.66;;;16.36;28.34
59337;BME280;45115;52.002;4.686;2023-04-19T12:42:55;102703.88;;;15.92;26.58
59337;BME280;45115;52.002;4.686;2023-04-19T12:45:22;102683.13;;;15.77;27.48
59337;BME280;45115;52.002;4.686;2023-04-19T12:47:50;102689.47;;;15.89;27.29
59337;BME280;45115;52.002;4.686;2023-04-19T12:50:16;102685.94;;;16.28;27.48
59337;BME280;45115;52.002;4.686;2023-04-19T12:52:44;102675.19;;;16.34;27.70
59337;BME280;45115;52.002;4.686;2023-04-19T12:55:10;102698.75;;;16.29;27.13
59337;BME280;45115;52.002;4.686;2023-04-19T12:57:37;102653.19;;;16.23;26.53
59337;BME280;45115;52.002;4.686;2023-04-19T13:00:05;102663.91;;;16.17;25.64
59337;BME280;45115;52.002;4.686;2023-04-19T13:02:34;102658.94;;;16.11;25.09
59337;BME280;45115;52.002;4.686;2023-04-19T13:05:02;102652.38;;;16.12;25.52
59337;BME280;45115;52.002;4.686;2023-04-19T13:07:30;102647.81;;;16.31;25.44
59337;BME280;45115;52.002;4.686;2023-04-19T13:09:56;102643.09;;;16.83;25.61